createdAt,value
2019-05-23T00:01:00.671Z,14.70
2019-05-23T00:03:37.669Z,12.00
2019-05-23T00:06:19.759Z,14.97
2019-05-23T00:08:47.493Z,15.23
2019-05-23T00:11:13.759Z,14.70
2019-05-23T00:13:24.945Z,14.30
2019-05-23T00:15:38.860Z,14.03
2019-05-23T00:17:46.169Z,14.27
2019-05-23T00:19:53.552Z,14.90
2019-05-23T00:22:02.321Z,16.77
2019-05-23T00:24:11.090Z,14.70
2019-05-23T00:26:19.906Z,15.47
2019-05-23T00:28:26.865Z,15.13
2019-05-23T00:30:41.214Z,14.57
2019-05-23T00:32:50.867Z,14.10
2019-05-23T00:34:59.263Z,15.10
2019-05-23T00:37:07.798Z,12.90
2019-05-23T00:39:15.766Z,15.33
2019-05-23T00:41:24.914Z,14.97
2019-05-23T00:43:37.010Z,14.43
2019-05-23T00:45:43.885Z,15.17
2019-05-23T00:47:52.303Z,14.40
2019-05-23T00:49:59.184Z,12.60
2019-05-23T00:52:06.541Z,12.77
2019-05-23T00:54:14.987Z,13.77
2019-05-23T00:56:22.452Z,14.40
2019-05-23T00:58:30.511Z,13.17
2019-05-23T01:00:38.116Z,12.83
2019-05-23T01:02:47.073Z,12.43
2019-05-23T01:04:53.630Z,13.97
2019-05-23T01:07:00.938Z,12.83
2019-05-23T01:09:08.330Z,11.63
2019-05-23T01:11:16.663Z,11.57
2019-05-23T01:13:23.842Z,10.23
2019-05-23T01:15:31.098Z,11.57
2019-05-23T01:17:37.649Z,11.13
2019-05-23T01:19:45.371Z,12.93
2019-05-23T01:21:56.830Z,9.93
2019-05-23T01:24:04.842Z,13.10
2019-05-23T01:26:14.864Z,11.87
2019-05-23T01:28:21.758Z,10.83
2019-05-23T01:30:29.733Z,11.47
2019-05-23T01:32:42.842Z,11.77
2019-05-23T01:34:49.877Z,9.83
2019-05-23T01:36:57.237Z,10.97
2019-05-23T01:39:05.536Z,11.03
2019-05-23T01:41:13.237Z,10.73
2019-05-23T01:43:20.138Z,9.40
2019-05-23T01:45:30.887Z,11.00
2019-05-23T01:47:38.093Z,10.67
2019-05-23T01:49:44.440Z,9.90
2019-05-23T01:51:52.411Z,10.87
2019-05-23T01:53:59.015Z,10.37
2019-05-23T01:56:06.063Z,11.37
2019-05-23T01:58:13.245Z,9.63
2019-05-23T02:00:21.954Z,8.90
2019-05-23T02:02:29.147Z,9.30
2019-05-23T02:04:35.923Z,8.73
2019-05-23T02:06:42.684Z,7.43
2019-05-23T02:08:49.300Z,7.90
2019-05-23T02:10:56.028Z,9.83
2019-05-23T02:13:03.654Z,8.80
2019-05-23T02:15:13.148Z,9.07
2019-05-23T02:17:20.387Z,8.83
2019-05-23T02:19:28.506Z,8.77
2019-05-23T02:21:35.721Z,8.33
2019-05-23T02:23:42.756Z,9.13
2019-05-23T02:25:52.233Z,9.47
2019-05-23T02:27:58.837Z,8.77
2019-05-23T02:30:32.295Z,8.20
2019-05-23T02:32:20.955Z,8.63
2019-05-23T02:34:28.912Z,9.67
2019-05-23T02:36:35.833Z,8.93
2019-05-23T02:38:54.090Z,9.27
2019-05-23T02:41:02.672Z,9.27
2019-05-23T02:43:11.630Z,9.53
2019-05-23T02:45:23.816Z,11.20
2019-05-23T02:47:35.607Z,10.37
2019-05-23T02:49:42.706Z,10.73
2019-05-23T02:51:50.103Z,9.90
2019-05-23T02:53:58.904Z,9.83
2019-05-23T02:56:10.452Z,9.57
2019-05-23T02:58:33.951Z,11.60
2019-05-23T03:00:55.006Z,9.80
2019-05-23T03:03:11.443Z,9.37
2019-05-23T03:05:20.189Z,10.03
2019-05-23T03:07:32.062Z,10.63
2019-05-23T03:09:40.427Z,11.20
2019-05-23T03:11:49.703Z,9.17
2019-05-23T03:13:58.536Z,10.27
2019-05-23T03:16:06.403Z,9.50
2019-05-23T03:18:16.457Z,9.43
2019-05-23T03:20:25.519Z,10.27
2019-05-23T03:22:37.794Z,10.87
2019-05-23T03:24:44.773Z,10.80
2019-05-23T03:27:07.263Z,9.80
2019-05-23T03:29:14.400Z,10.17
2019-05-23T03:31:39.305Z,11.50
2019-05-23T03:33:46.874Z,10.83
2019-05-23T03:35:58.473Z,9.50
2019-05-23T03:38:06.462Z,12.33
2019-05-23T03:40:13.447Z,11.43
2019-05-23T03:42:21.442Z,13.70
2019-05-23T03:44:29.542Z,11.97
2019-05-23T03:46:38.903Z,9.97
2019-05-23T03:48:46.898Z,9.70
2019-05-23T03:50:56.086Z,10.80
2019-05-23T03:53:02.706Z,11.13
2019-05-23T03:55:11.482Z,9.83
2019-05-23T03:57:19.818Z,9.83
2019-05-23T03:59:28.014Z,10.40
2019-05-23T04:01:47.174Z,10.60
2019-05-23T04:03:45.187Z,10.50
2019-05-23T04:05:52.656Z,10.43
2019-05-23T04:07:59.111Z,9.10
2019-05-23T04:10:09.257Z,10.50
2019-05-23T04:12:16.355Z,9.03
2019-05-23T04:14:23.654Z,9.60
2019-05-23T04:16:30.905Z,8.63
2019-05-23T04:18:37.578Z,10.00
2019-05-23T04:20:44.549Z,10.10
2019-05-23T04:22:51.742Z,9.90
2019-05-23T04:25:01.844Z,9.30
2019-05-23T04:27:07.824Z,9.37
2019-05-23T04:29:14.920Z,9.77
2019-05-23T04:31:22.249Z,9.20
2019-05-23T04:33:29.388Z,10.50
2019-05-23T04:35:36.288Z,8.67
2019-05-23T04:37:42.946Z,9.63
2019-05-23T04:39:51.211Z,9.47
2019-05-23T04:41:58.830Z,10.03
2019-05-23T04:44:07.240Z,11.17
2019-05-23T04:46:14.296Z,16.40
2019-05-23T04:48:21.180Z,16.90
2019-05-23T04:50:28.973Z,12.87
2019-05-23T04:52:38.612Z,9.37
2019-05-23T04:54:45.820Z,8.77
2019-05-23T04:56:53.999Z,8.60
2019-05-23T04:59:01.282Z,9.70
2019-05-23T05:01:08.656Z,9.07
2019-05-23T05:03:18.245Z,9.43
2019-05-23T05:05:26.529Z,10.03
2019-05-23T05:07:33.164Z,9.50
2019-05-23T05:09:39.971Z,8.77
2019-05-23T05:11:46.722Z,9.73
2019-05-23T05:13:54.419Z,8.70
2019-05-23T05:16:02.509Z,8.77
2019-05-23T05:18:09.111Z,8.10
2019-05-23T05:20:16.199Z,8.50
2019-05-23T05:22:25.013Z,7.87
2019-05-23T05:24:31.966Z,8.40
2019-05-23T05:26:38.349Z,7.73
2019-05-23T05:28:45.917Z,8.23
2019-05-23T05:30:52.491Z,8.00
2019-05-23T05:32:59.788Z,6.57
2019-05-23T05:35:09.010Z,6.20
2019-05-23T05:37:15.373Z,5.83
2019-05-23T05:39:21.932Z,5.50
2019-05-23T05:41:28.618Z,5.90
2019-05-23T05:43:35.780Z,6.13
2019-05-23T05:45:44.097Z,5.17
2019-05-23T05:47:50.567Z,5.23
2019-05-23T05:49:57.137Z,5.30
2019-05-23T05:52:05.739Z,4.63
2019-05-23T05:54:13.333Z,4.90
2019-05-23T05:56:19.828Z,5.00
2019-05-23T05:58:26.167Z,5.30
2019-05-23T06:00:37.671Z,4.83
2019-05-23T06:03:00.815Z,4.20
2019-05-23T06:04:58.902Z,3.47
2019-05-23T06:07:13.550Z,4.10
2019-05-23T06:09:24.494Z,3.60
2019-05-23T06:11:33.969Z,2.97
2019-05-23T06:13:44.072Z,3.23
2019-05-23T06:15:54.467Z,3.00
2019-05-23T06:18:04.451Z,3.10
2019-05-23T06:20:11.872Z,2.87
2019-05-23T06:22:18.861Z,3.00
2019-05-23T06:24:44.744Z,2.57
2019-05-23T06:26:40.838Z,3.10
2019-05-23T06:28:50.287Z,2.80
2019-05-23T06:31:01.657Z,2.17
2019-05-23T06:33:22.790Z,3.10
2019-05-23T06:35:21.614Z,2.10
2019-05-23T06:37:33.845Z,3.37
2019-05-23T06:39:42.555Z,2.80
2019-05-23T06:41:55.267Z,3.00
2019-05-23T06:44:03.343Z,3.60
2019-05-23T06:46:12.899Z,3.60
2019-05-23T06:48:21.544Z,3.37
2019-05-23T06:50:28.458Z,3.83
2019-05-23T06:52:35.248Z,3.40
2019-05-23T06:54:42.026Z,3.80
2019-05-23T06:56:48.379Z,4.47
2019-05-23T06:58:54.641Z,4.13
2019-05-23T07:01:01.633Z,4.30
2019-05-23T07:03:08.776Z,4.13
2019-05-23T07:05:18.152Z,3.40
2019-05-23T07:07:26.228Z,4.60
2019-05-23T07:09:32.996Z,3.77
2019-05-23T07:11:39.656Z,3.90
2019-05-23T07:13:46.434Z,3.30
2019-05-23T07:15:52.957Z,3.60
2019-05-23T07:18:01.847Z,3.40
2019-05-23T07:20:12.452Z,3.93
2019-05-23T07:22:20.803Z,4.53
2019-05-23T07:24:27.825Z,3.33
2019-05-23T07:26:36.354Z,6.60
2019-05-23T07:28:42.734Z,4.30
2019-05-23T07:30:49.218Z,4.07
2019-05-23T07:32:56.498Z,4.37
2019-05-23T07:35:04.339Z,4.60
2019-05-23T07:37:10.774Z,4.77
2019-05-23T07:39:18.375Z,4.30
2019-05-23T07:41:24.926Z,3.53
2019-05-23T07:43:31.486Z,4.67
2019-05-23T07:45:41.325Z,4.63
2019-05-23T07:47:48.414Z,4.40
2019-05-23T07:49:54.866Z,3.97
2019-05-23T07:52:01.355Z,4.57
2019-05-23T07:54:14.388Z,5.57
2019-05-23T07:56:22.786Z,4.67
2019-05-23T07:58:29.767Z,5.27
2019-05-23T08:00:48.734Z,5.60
2019-05-23T08:02:59.180Z,4.07
2019-05-23T08:05:08.572Z,4.27
2019-05-23T08:07:16.508Z,4.50
2019-05-23T08:09:23.914Z,4.20
2019-05-23T08:11:30.635Z,5.20
2019-05-23T08:13:37.850Z,3.93
2019-05-23T08:15:45.547Z,4.10
2019-05-23T08:17:51.899Z,4.03
2019-05-23T08:19:58.161Z,4.87
2019-05-23T08:22:06.068Z,4.97
2019-05-23T08:24:12.931Z,4.50
2019-05-23T08:26:21.248Z,4.73
2019-05-23T08:28:27.630Z,4.30
2019-05-23T08:30:36.031Z,4.73
2019-05-23T08:32:42.278Z,4.80
2019-05-23T08:34:50.074Z,3.53
2019-05-23T08:36:56.838Z,4.50
2019-05-23T08:39:08.939Z,3.70
2019-05-23T08:41:15.734Z,4.10
2019-05-23T08:43:22.378Z,3.77
2019-05-23T08:45:29.068Z,5.63
2019-05-23T08:47:37.249Z,3.60
2019-05-23T08:49:43.719Z,3.97
2019-05-23T08:51:50.409Z,3.63
2019-05-23T08:53:56.919Z,3.37
2019-05-23T08:56:17.659Z,3.43
2019-05-23T08:58:14.611Z,4.00
2019-05-23T09:00:23.125Z,4.20
2019-05-23T09:02:29.987Z,3.23
2019-05-23T09:04:36.773Z,3.43
2019-05-23T09:06:44.700Z,4.10
2019-05-23T09:08:52.322Z,3.93
2019-05-23T09:10:59.235Z,3.60
2019-05-23T09:13:06.315Z,3.97
2019-05-23T09:15:12.794Z,3.90
2019-05-23T09:17:20.234Z,3.00
2019-05-23T09:19:27.244Z,4.03
2019-05-23T09:21:33.814Z,3.43
2019-05-23T09:23:40.861Z,3.33
2019-05-23T09:25:47.979Z,4.30
2019-05-23T09:27:55.260Z,3.83
2019-05-23T09:30:02.976Z,3.30
2019-05-23T09:32:10.038Z,3.43
2019-05-23T09:34:16.795Z,3.37
2019-05-23T09:36:35.723Z,3.73
2019-05-23T09:38:42.017Z,4.10
2019-05-23T09:40:48.470Z,3.93
2019-05-23T09:42:54.728Z,4.10
2019-05-23T09:45:01.307Z,4.47
2019-05-23T09:47:07.968Z,4.90
2019-05-23T09:49:15.061Z,5.27
2019-05-23T09:51:22.048Z,4.63
2019-05-23T09:53:28.816Z,4.57
2019-05-23T09:55:36.001Z,4.00
2019-05-23T09:57:42.444Z,5.07
2019-05-23T09:59:49.234Z,4.33
2019-05-23T10:01:57.442Z,4.73
2019-05-23T10:04:04.567Z,4.47
2019-05-23T10:06:11.193Z,4.80
2019-05-23T10:08:17.531Z,5.17
2019-05-23T10:10:24.925Z,4.90
2019-05-23T10:12:31.495Z,4.23
2019-05-23T10:14:39.609Z,4.77
2019-05-23T10:16:46.383Z,5.23
2019-05-23T10:18:52.742Z,5.50
2019-05-23T10:20:59.100Z,5.73
2019-05-23T10:23:06.216Z,5.33
2019-05-23T10:25:12.941Z,4.93
2019-05-23T10:27:20.653Z,5.03
2019-05-23T10:29:27.015Z,4.73
2019-05-23T10:31:33.675Z,4.90
2019-05-23T10:33:40.454Z,4.33
2019-05-23T10:35:59.733Z,4.83
2019-05-23T10:37:55.733Z,5.33
2019-05-23T10:40:02.445Z,4.27
2019-05-23T10:42:10.238Z,4.53
2019-05-23T10:44:17.950Z,3.30
2019-05-23T10:46:24.560Z,3.97
2019-05-23T10:48:31.651Z,4.43
2019-05-23T10:50:44.706Z,3.93
2019-05-23T10:52:46.551Z,3.63
2019-05-23T10:54:53.891Z,3.20
2019-05-23T10:57:00.500Z,3.37
2019-05-23T10:59:07.495Z,4.30
2019-05-23T11:01:14.953Z,3.13
2019-05-23T11:03:23.897Z,3.67
2019-05-23T11:05:31.170Z,3.90
2019-05-23T11:07:38.604Z,3.60
2019-05-23T11:09:46.704Z,3.23
2019-05-23T11:11:53.631Z,3.93
2019-05-23T11:14:00.854Z,2.80
2019-05-23T11:16:08.019Z,2.83
2019-05-23T11:18:14.992Z,3.17
2019-05-23T11:20:22.033Z,2.83
2019-05-23T11:22:28.953Z,3.20
2019-05-23T11:24:35.672Z,3.00
2019-05-23T11:26:44.311Z,2.90
2019-05-23T11:28:50.794Z,2.80
2019-05-23T11:30:58.896Z,3.43
2019-05-23T11:33:05.571Z,3.40
2019-05-23T11:35:13.893Z,3.70
2019-05-23T11:37:20.743Z,3.30
2019-05-23T11:39:27.651Z,2.97
2019-05-23T11:41:34.792Z,2.87
2019-05-23T11:43:42.573Z,4.23
2019-05-23T11:45:54.230Z,3.17
2019-05-23T11:48:00.853Z,2.87
2019-05-23T11:50:11.090Z,3.13
2019-05-23T11:52:17.878Z,2.73
2019-05-23T11:54:25.911Z,3.07
2019-05-23T11:56:33.657Z,2.30
2019-05-23T11:58:40.613Z,2.60
2019-05-23T12:01:10.746Z,2.80
2019-05-23T12:03:19.475Z,3.53
2019-05-23T12:05:27.791Z,2.33
2019-05-23T12:07:38.551Z,2.50
2019-05-23T12:09:46.631Z,2.43
2019-05-23T12:11:53.140Z,2.67
2019-05-23T12:13:59.973Z,2.90
2019-05-23T12:16:08.772Z,2.60
2019-05-23T12:18:15.824Z,2.70
2019-05-23T12:20:22.790Z,2.60
2019-05-23T12:22:29.765Z,2.57
2019-05-23T12:24:39.162Z,2.90
2019-05-23T12:26:45.892Z,2.50
2019-05-23T12:28:52.630Z,2.03
2019-05-23T12:30:59.002Z,2.63
2019-05-23T12:33:06.031Z,2.27
2019-05-23T12:35:13.242Z,2.50
2019-05-23T12:37:20.861Z,2.47
2019-05-23T12:39:27.659Z,2.33
2019-05-23T12:41:34.274Z,2.20
2019-05-23T12:43:40.601Z,2.30
2019-05-23T12:45:47.572Z,1.97
2019-05-23T12:47:56.552Z,1.80
2019-05-23T12:50:05.941Z,1.90
2019-05-23T12:52:13.255Z,2.00
2019-05-23T12:54:20.253Z,1.77
2019-05-23T12:56:27.019Z,2.37
2019-05-23T12:58:34.489Z,2.50
2019-05-23T13:00:40.442Z,2.33
2019-05-23T13:02:47.940Z,2.17
2019-05-23T13:04:54.812Z,3.13
2019-05-23T13:07:01.630Z,2.17
2019-05-23T13:09:11.834Z,1.77
2019-05-23T13:11:18.709Z,1.73
2019-05-23T13:13:26.054Z,2.33
2019-05-23T13:15:34.914Z,1.60
2019-05-23T13:17:41.696Z,2.07
2019-05-23T13:19:48.762Z,2.07
2019-05-23T13:21:55.735Z,2.47
2019-05-23T13:24:02.325Z,2.17
2019-05-23T13:26:09.109Z,2.30
2019-05-23T13:28:15.578Z,2.00
2019-05-23T13:30:22.022Z,2.90
2019-05-23T13:32:42.102Z,2.13
2019-05-23T13:34:50.889Z,2.33
2019-05-23T13:36:58.463Z,4.03
2019-05-23T13:39:08.041Z,2.23
2019-05-23T13:41:15.105Z,1.97
2019-05-23T13:43:22.627Z,2.57
2019-05-23T13:45:30.910Z,3.03
2019-05-23T13:47:37.645Z,1.93
2019-05-23T13:49:44.560Z,2.83
2019-05-23T13:51:52.791Z,1.70
2019-05-23T13:54:00.773Z,1.90
2019-05-23T13:56:08.280Z,2.67
2019-05-23T13:58:17.199Z,1.83
2019-05-23T14:00:25.135Z,1.57
2019-05-23T14:02:31.544Z,1.90
2019-05-23T14:04:39.152Z,2.37
2019-05-23T14:06:46.224Z,2.40
2019-05-23T14:08:54.145Z,2.23
2019-05-23T14:11:00.373Z,2.60
2019-05-23T14:13:09.699Z,2.00
2019-05-23T14:15:31.558Z,2.43
2019-05-23T14:17:43.343Z,2.57
2019-05-23T14:21:57.006Z,1.70
2019-05-23T14:24:06.930Z,2.10
2019-05-23T14:26:20.103Z,3.27
2019-05-23T14:28:31.120Z,1.80
2019-05-23T14:30:43.713Z,1.70
2019-05-23T14:32:55.307Z,2.00
2019-05-23T14:35:04.138Z,1.63
2019-05-23T14:37:12.962Z,2.20
2019-05-23T14:39:21.167Z,1.90
2019-05-23T14:41:44.276Z,1.90
2019-05-23T14:43:37.664Z,1.90
2019-05-23T14:45:51.723Z,1.83
2019-05-23T14:48:11.222Z,1.87
2019-05-23T14:50:15.612Z,1.93
2019-05-23T14:52:29.849Z,2.00
2019-05-23T14:54:39.389Z,1.90
2019-05-23T14:56:46.282Z,2.13
2019-05-23T14:58:54.368Z,2.70
2019-05-23T15:01:01.554Z,1.77
2019-05-23T15:03:08.113Z,2.00
2019-05-23T15:05:16.048Z,2.00
2019-05-23T15:07:22.997Z,1.70
2019-05-23T15:09:30.179Z,1.87
2019-05-23T15:11:37.264Z,2.10
2019-05-23T15:13:43.724Z,2.30
2019-05-23T15:15:50.180Z,2.23
2019-05-23T15:17:57.568Z,1.90
2019-05-23T15:20:06.078Z,1.80
2019-05-23T15:22:12.788Z,1.67
2019-05-23T15:24:19.448Z,1.90
2019-05-23T15:26:27.342Z,2.70
2019-05-23T15:28:35.461Z,1.53
2019-05-23T15:30:43.506Z,2.23
2019-05-23T15:32:49.788Z,2.30
2019-05-23T15:34:56.442Z,2.30
2019-05-23T15:37:02.952Z,2.33
2019-05-23T15:39:10.917Z,2.70
2019-05-23T15:41:17.935Z,2.27
2019-05-23T15:43:24.482Z,2.60
2019-05-23T15:45:31.546Z,2.47
2019-05-23T15:47:38.213Z,2.40
2019-05-23T15:49:46.654Z,2.20
2019-05-23T15:51:54.693Z,2.37
2019-05-23T15:54:02.846Z,2.90
2019-05-23T15:56:26.835Z,2.53
2019-05-23T15:58:26.311Z,2.40
2019-05-23T16:00:49.993Z,1.73
2019-05-23T16:03:05.970Z,2.33
2019-05-23T16:05:14.517Z,2.47
2019-05-23T16:07:21.258Z,2.23
2019-05-23T16:09:30.662Z,21.20
2019-05-23T16:11:36.882Z,3.70
2019-05-23T16:13:43.960Z,3.03
2019-05-23T16:15:50.807Z,1.70
2019-05-23T16:17:57.666Z,2.03
2019-05-23T16:20:05.367Z,1.90
2019-05-23T16:22:12.143Z,1.93
2019-05-23T16:24:19.431Z,2.10
2019-05-23T16:26:26.121Z,2.17
2019-05-23T16:28:32.450Z,2.30
2019-05-23T16:30:39.650Z,2.47
2019-05-23T16:32:46.835Z,1.73
2019-05-23T16:34:53.733Z,2.37
2019-05-23T16:37:00.174Z,1.83
2019-05-23T16:39:09.408Z,2.60
2019-05-23T16:41:16.401Z,1.90
2019-05-23T16:43:22.836Z,1.33
2019-05-23T16:45:31.770Z,1.80
2019-05-23T16:47:38.118Z,2.00
2019-05-23T16:49:44.702Z,1.90
2019-05-23T16:51:51.457Z,2.50
2019-05-23T16:53:58.043Z,2.00
2019-05-23T16:56:25.102Z,2.33
2019-05-23T16:58:34.640Z,2.53
2019-05-23T17:00:50.701Z,2.83
2019-05-23T17:02:58.700Z,2.23
2019-05-23T17:05:16.031Z,2.83
2019-05-23T17:07:19.787Z,2.53
2019-05-23T17:09:32.474Z,2.50
2019-05-23T17:11:41.981Z,2.47
2019-05-23T17:13:50.186Z,2.97
2019-05-23T17:16:04.656Z,2.87
2019-05-23T17:18:30.354Z,2.23
2019-05-23T17:20:47.776Z,2.37
2019-05-23T17:23:05.107Z,3.00
2019-05-23T17:25:28.355Z,2.67
2019-05-23T17:27:39.326Z,3.00
2019-05-23T17:29:48.050Z,3.00
2019-05-23T17:31:56.252Z,2.83
2019-05-23T17:34:04.245Z,2.63
2019-05-23T17:36:10.792Z,2.63
2019-05-23T17:38:17.487Z,3.60
2019-05-23T17:40:25.623Z,3.97
2019-05-23T17:42:32.835Z,2.87
2019-05-23T17:44:39.684Z,2.33
2019-05-23T17:46:46.015Z,3.00
2019-05-23T17:48:54.067Z,2.33
2019-05-23T17:51:01.391Z,2.30
2019-05-23T17:53:07.788Z,2.30
2019-05-23T17:55:14.687Z,2.43
2019-05-23T17:57:21.206Z,1.90
2019-05-23T17:59:27.565Z,2.67
2019-05-23T18:01:34.025Z,2.20
2019-05-23T18:03:42.117Z,2.50
2019-05-23T18:05:48.698Z,2.50
2019-05-23T18:07:55.989Z,2.50
2019-05-23T18:12:08.614Z,2.93
2019-05-23T18:14:15.907Z,3.27
2019-05-23T18:16:24.001Z,2.87
2019-05-23T18:18:31.398Z,3.07
2019-05-23T18:20:38.262Z,3.70
2019-05-23T18:22:44.828Z,3.80
2019-05-23T18:24:51.549Z,4.03
2019-05-23T18:26:58.541Z,3.33
2019-05-23T18:29:05.355Z,3.60
2019-05-23T18:31:14.227Z,4.53
2019-05-23T18:33:23.823Z,3.60
2019-05-23T18:35:31.416Z,3.40
2019-05-23T18:37:39.134Z,4.63
2019-05-23T18:39:47.108Z,4.03
2019-05-23T18:41:54.633Z,4.23
2019-05-23T18:44:01.374Z,3.97
2019-05-23T18:46:10.498Z,4.30
2019-05-23T18:48:19.248Z,3.40
2019-05-23T18:50:26.405Z,4.47
2019-05-23T18:52:33.098Z,3.53
2019-05-23T18:54:39.756Z,4.13
2019-05-23T18:56:46.520Z,4.40
2019-05-23T18:58:53.507Z,4.07
2019-05-23T19:01:03.439Z,4.27
2019-05-23T19:05:16.562Z,3.50
2019-05-23T19:07:23.553Z,4.03
2019-05-23T19:09:30.502Z,3.60
2019-05-23T19:11:39.117Z,3.70
2019-05-23T19:13:46.361Z,3.43
2019-05-23T19:15:52.994Z,3.70
2019-05-23T19:18:01.421Z,3.30
2019-05-23T19:20:11.355Z,3.80
2019-05-23T19:22:19.406Z,3.20
2019-05-23T19:24:26.538Z,4.10
2019-05-23T19:26:33.474Z,3.97
2019-05-23T19:28:41.115Z,4.23
2019-05-23T19:30:48.383Z,3.57
2019-05-23T19:32:55.785Z,4.50
2019-05-23T19:35:03.151Z,4.17
2019-05-23T19:37:11.309Z,3.47
2019-05-23T19:39:18.329Z,4.20
2019-05-23T19:41:36.920Z,4.20
2019-05-23T19:43:33.882Z,4.90
2019-05-23T19:45:41.914Z,4.47
2019-05-23T19:47:49.766Z,4.10
2019-05-23T19:49:56.387Z,3.93
2019-05-23T19:52:03.759Z,3.57
2019-05-23T19:54:10.652Z,4.33
2019-05-23T19:56:17.699Z,3.93
2019-05-23T19:58:24.273Z,4.00
2019-05-23T20:00:32.806Z,3.87
2019-05-23T20:02:45.547Z,4.50
2019-05-23T20:05:03.243Z,4.27
2019-05-23T20:07:15.323Z,3.77
2019-05-23T20:09:20.744Z,4.00
2019-05-23T20:11:28.605Z,3.77
2019-05-23T20:13:35.245Z,3.20
2019-05-23T20:15:45.819Z,3.90
2019-05-23T20:17:52.344Z,3.33
2019-05-23T20:19:59.268Z,3.53
2019-05-23T20:22:06.224Z,3.50
2019-05-23T20:24:14.030Z,3.67
2019-05-23T20:26:23.461Z,3.30
2019-05-23T20:28:30.450Z,3.23
2019-05-23T20:30:48.126Z,3.53
2019-05-23T20:32:54.734Z,3.70
2019-05-23T20:35:01.407Z,2.67
2019-05-23T20:37:09.621Z,2.57
2019-05-23T20:39:19.148Z,3.07
2019-05-23T20:41:25.964Z,2.47
2019-05-23T20:43:32.415Z,3.70
2019-05-23T20:45:39.979Z,3.50
2019-05-23T20:47:46.969Z,3.10
2019-05-23T20:49:53.749Z,3.17
2019-05-23T20:52:00.612Z,2.53
2019-05-23T20:54:09.327Z,2.33
2019-05-23T20:56:15.885Z,2.50
2019-05-23T20:58:22.670Z,2.20
2019-05-23T21:00:31.989Z,2.20
2019-05-23T21:02:40.011Z,1.97
2019-05-23T21:04:46.458Z,2.00
2019-05-23T21:06:53.751Z,2.10
2019-05-23T21:09:00.087Z,1.83
2019-05-23T21:11:07.287Z,1.77
2019-05-23T21:13:13.864Z,1.90
2019-05-23T21:15:20.419Z,1.83
2019-05-23T21:17:28.443Z,2.40
2019-05-23T21:19:35.214Z,1.70
2019-05-23T21:21:43.599Z,1.40
2019-05-23T21:23:53.573Z,1.37
2019-05-23T21:26:00.636Z,1.70
2019-05-23T21:28:07.216Z,1.83
2019-05-23T21:30:14.891Z,1.57
2019-05-23T21:32:21.868Z,1.33
2019-05-23T21:34:28.229Z,1.20
2019-05-23T21:36:35.316Z,1.37
2019-05-23T21:38:41.579Z,1.33
2019-05-23T21:40:51.325Z,1.27
2019-05-23T21:42:59.224Z,2.00
2019-05-23T21:45:07.422Z,1.70
2019-05-23T21:47:13.993Z,1.20
2019-05-23T21:49:20.366Z,1.30
2019-05-23T21:51:27.040Z,1.50
2019-05-23T21:53:35.647Z,1.80
2019-05-23T21:55:44.040Z,1.60
2019-05-23T21:57:50.813Z,1.27
2019-05-23T21:59:57.186Z,1.30
2019-05-23T22:02:05.700Z,1.67
2019-05-23T22:04:14.107Z,1.23
2019-05-23T22:06:31.532Z,1.37
2019-05-23T22:08:39.020Z,1.43
2019-05-23T22:10:45.634Z,1.60
2019-05-23T22:13:04.044Z,1.33
2019-05-23T22:15:02.218Z,1.10
2019-05-23T22:17:10.535Z,1.37
2019-05-23T22:19:19.066Z,1.03
2019-05-23T22:21:25.394Z,1.83
2019-05-23T22:23:34.818Z,1.50
2019-05-23T22:25:45.074Z,1.27
2019-05-23T22:27:51.429Z,1.50
2019-05-23T22:29:57.812Z,1.37
2019-05-23T22:32:05.189Z,1.50
2019-05-23T22:34:16.064Z,1.20
2019-05-23T22:36:23.852Z,1.20
2019-05-23T22:38:32.997Z,1.87
2019-05-23T22:40:39.624Z,1.60
2019-05-23T22:42:46.227Z,1.60
2019-05-23T22:44:52.680Z,1.50
2019-05-23T22:47:00.592Z,1.73
2019-05-23T22:49:07.058Z,1.40
2019-05-23T22:51:13.602Z,2.00
2019-05-23T22:53:20.056Z,1.93
2019-05-23T22:55:26.628Z,1.63
2019-05-23T22:57:33.045Z,1.50
2019-05-23T22:59:39.783Z,1.40
2019-05-23T23:01:46.048Z,1.67
2019-05-23T23:03:53.125Z,1.70
2019-05-23T23:05:59.481Z,1.70
2019-05-23T23:08:06.765Z,1.93
2019-05-23T23:10:13.149Z,1.77
2019-05-23T23:12:19.779Z,1.50
2019-05-23T23:14:27.492Z,1.20
2019-05-23T23:16:33.777Z,1.80
2019-05-23T23:18:40.716Z,1.63
2019-05-23T23:20:47.798Z,1.57
2019-05-23T23:22:55.629Z,1.87
2019-05-23T23:25:02.067Z,1.60
2019-05-23T23:27:08.314Z,1.90
2019-05-23T23:29:14.815Z,1.70
2019-05-23T23:31:21.272Z,1.93
2019-05-23T23:33:27.729Z,1.80
2019-05-23T23:35:35.163Z,1.60
2019-05-23T23:37:42.495Z,1.63
2019-05-23T23:39:49.048Z,1.60
2019-05-23T23:41:55.729Z,1.83
2019-05-23T23:44:02.005Z,1.67
2019-05-23T23:46:27.814Z,1.43
2019-05-23T23:48:52.308Z,1.60
2019-05-23T23:51:16.295Z,1.50
2019-05-23T23:53:40.878Z,1.50
2019-05-23T23:56:05.164Z,1.27
2019-05-23T23:58:10.904Z,1.80
